sensor_id;sensor_type;location;lat;lon;timestamp;pressure;altitude;pressure_sealevel;temperature;humidity
56006;BME280;41888;44.696;10.522;2023-07-13T00:01:59;100373.59;;;26.02;100.00
56006;BME280;41888;44.696;10.522;2023-07-13T00:04:25;100371.50;;;25.99;100.00
56006;BME280;41888;44.696;10.522;2023-07-13T00:06:52;100380.19;;;26.01;100.00
56006;BME280;41888;44.696;10.522;2023-07-13T00:09:19;100378.47;;;25.91;100.00
56006;BME280;41888;44.696;10.522;2023-07-13T00:11:49;100389.66;;;25.68;100.00
56006;BME280;41888;44.696;10.522;2023-07-13T00:14:16;100382.41;;;25.63;100.00
56006;BME280;41888;44.696;10.522;2023-07-13T00:16:42;100364.63;;;25.65;100.00
56006;BME280;41888;44.696;10.522;2023-07-13T00:19:10;100378.19;;;25.57;100.00
56006;BME280;41888;44.696;10.522;2023-07-13T00:21:40;100381.72;;;25.57;100.00
56006;BME280;41888;44.696;10.522;2023-07-13T00:24:08;100373.53;;;25.57;100.00
56006;BME280;41888;44.696;10.522;2023-07-13T00:26:39;100367.56;;;25.55;100.00
56006;BME280;41888;44.696;10.522;2023-07-13T00:29:05;100368.38;;;25.70;100.00
56006;BME280;41888;44.696;10.522;2023-07-13T00:31:35;100373.13;;;25.64;100.00
56006;BME280;41888;44.696;10.522;2023-07-13T00:34:02;100377.38;;;25.56;100.00
56006;BME280;41888;44.696;10.522;2023-07-13T00:36:30;100377.16;;;25.53;100.00
56006;BME280;41888;44.696;10.522;2023-07-13T00:38:56;100374.22;;;25.49;100.00
56006;BME280;41888;44.696;10.522;2023-07-13T00:41:23;100374.34;;;25.58;100.00
56006;BME280;41888;44.696;10.522;2023-07-13T00:43:49;100374.94;;;25.69;100.00
56006;BME280;41888;44.696;10.522;2023-07-13T00:46:19;100358.38;;;25.65;100.00
56006;BME280;41888;44.696;10.522;2023-07-13T00:48:47;100351.00;;;25.65;99.71
56006;BME280;41888;44.696;10.522;2023-07-13T00:51:19;100340.91;;;25.66;99.05
56006;BME280;41888;44.696;10.522;2023-07-13T00:53:47;100331.94;;;25.65;99.43
56006;BME280;41888;44.696;10.522;2023-07-13T00:56:13;100325.78;;;25.60;98.52
56006;BME280;41888;44.696;10.522;2023-07-13T00:58:39;100324.38;;;25.49;97.87
56006;BME280;41888;44.696;10.522;2023-07-13T01:01:06;100325.28;;;25.44;97.98
56006;BME280;41888;44.696;10.522;2023-07-13T01:03:32;100322.19;;;25.37;97.98
56006;BME280;41888;44.696;10.522;2023-07-13T01:06:00;100323.19;;;25.28;98.92
56006;BME280;41888;44.696;10.522;2023-07-13T01:08:26;100302.75;;;25.16;99.80
56006;BME280;41888;44.696;10.522;2023-07-13T01:10:56;100289.47;;;24.88;100.00
56006;BME280;41888;44.696;10.522;2023-07-13T01:13:24;100293.16;;;24.78;100.00
56006;BME280;41888;44.696;10.522;2023-07-13T01:15:51;100294.06;;;25.14;100.00
56006;BME280;41888;44.696;10.522;2023-07-13T01:18:26;100299.63;;;25.09;100.00
56006;BME280;41888;44.696;10.522;2023-07-13T01:20:57;100292.66;;;25.17;99.29
56006;BME280;41888;44.696;10.522;2023-07-13T01:23:24;100282.38;;;25.14;99.37
56006;BME280;41888;44.696;10.522;2023-07-13T01:25:52;100287.44;;;24.93;100.00
56006;BME280;41888;44.696;10.522;2023-07-13T01:28:18;100293.31;;;24.54;100.00
56006;BME280;41888;44.696;10.522;2023-07-13T01:30:46;100290.69;;;24.17;100.00
56006;BME280;41888;44.696;10.522;2023-07-13T01:33:14;100280.78;;;23.93;100.00
56006;BME280;41888;44.696;10.522;2023-07-13T01:35:41;100276.53;;;23.87;100.00
56006;BME280;41888;44.696;10.522;2023-07-13T01:38:08;100281.09;;;23.73;100.00
56006;BME280;41888;44.696;10.522;2023-07-13T01:40:35;100280.00;;;23.55;100.00
56006;BME280;41888;44.696;10.522;2023-07-13T01:43:02;100268.19;;;23.46;100.00
56006;BME280;41888;44.696;10.522;2023-07-13T01:45:29;100248.88;;;23.48;100.00
56006;BME280;41888;44.696;10.522;2023-07-13T01:47:55;100232.00;;;23.51;100.00
56006;BME280;41888;44.696;10.522;2023-07-13T01:50:21;100229.88;;;23.48;100.00
56006;BME280;41888;44.696;10.522;2023-07-13T01:52:48;100226.50;;;23.56;100.00
56006;BME280;41888;44.696;10.522;2023-07-13T01:55:14;100241.00;;;23.65;100.00
56006;BME280;41888;44.696;10.522;2023-07-13T01:57:40;100237.56;;;23.60;100.00
56006;BME280;41888;44.696;10.522;2023-07-13T02:00:08;100234.13;;;23.54;100.00
56006;BME280;41888;44.696;10.522;2023-07-13T02:02:34;100219.31;;;23.46;100.00
56006;BME280;41888;44.696;10.522;2023-07-13T02:05:01;100199.19;;;23.66;100.00
56006;BME280;41888;44.696;10.522;2023-07-13T02:07:27;100191.38;;;23.78;100.00
56006;BME280;41888;44.696;10.522;2023-07-13T02:09:53;100226.16;;;24.09;100.00
56006;BME280;41888;44.696;10.522;2023-07-13T02:12:19;100237.84;;;24.09;100.00
56006;BME280;41888;44.696;10.522;2023-07-13T02:14:46;100248.38;;;23.97;100.00
56006;BME280;41888;44.696;10.522;2023-07-13T02:17:12;100245.91;;;23.82;100.00
56006;BME280;41888;44.696;10.522;2023-07-13T02:19:39;100239.56;;;23.73;100.00
56006;BME280;41888;44.696;10.522;2023-07-13T02:22:05;100234.84;;;23.78;100.00
56006;BME280;41888;44.696;10.522;2023-07-13T02:24:32;100230.63;;;23.86;100.00
56006;BME280;41888;44.696;10.522;2023-07-13T02:26:58;100230.25;;;23.92;100.00
56006;BME280;41888;44.696;10.522;2023-07-13T02:29:24;100235.94;;;24.10;100.00
56006;BME280;41888;44.696;10.522;2023-07-13T02:31:51;100226.63;;;24.29;100.00
56006;BME280;41888;44.696;10.522;2023-07-13T02:34:17;100223.81;;;24.34;100.00
56006;BME280;41888;44.696;10.522;2023-07-13T02:36:43;100236.94;;;24.46;100.00
56006;BME280;41888;44.696;10.522;2023-07-13T02:39:12;100231.97;;;24.48;100.00
56006;BME280;41888;44.696;10.522;2023-07-13T02:41:38;100232.88;;;24.30;100.00
56006;BME280;41888;44.696;10.522;2023-07-13T02:44:04;100233.72;;;24.12;100.00
56006;BME280;41888;44.696;10.522;2023-07-13T02:46:32;100222.81;;;23.98;100.00
56006;BME280;41888;44.696;10.522;2023-07-13T02:48:59;100227.88;;;24.05;100.00
56006;BME280;41888;44.696;10.522;2023-07-13T02:51:25;100244.66;;;24.07;100.00
56006;BME280;41888;44.696;10.522;2023-07-13T02:53:52;100246.19;;;24.13;100.00
56006;BME280;41888;44.696;10.522;2023-07-13T02:56:22;100256.06;;;24.09;100.00
56006;BME280;41888;44.696;10.522;2023-07-13T02:58:48;100249.09;;;24.03;100.00
56006;BME280;41888;44.696;10.522;2023-07-13T03:01:15;100235.78;;;24.01;100.00
56006;BME280;41888;44.696;10.522;2023-07-13T03:03:44;100239.00;;;23.89;100.00
56006;BME280;41888;44.696;10.522;2023-07-13T03:06:12;100240.03;;;23.75;100.00
56006;BME280;41888;44.696;10.522;2023-07-13T03:08:39;100245.22;;;23.58;100.00
56006;BME280;41888;44.696;10.522;2023-07-13T03:11:08;100246.69;;;23.50;100.00
56006;BME280;41888;44.696;10.522;2023-07-13T03:13:37;100259.28;;;23.41;100.00
56006;BME280;41888;44.696;10.522;2023-07-13T03:16:04;100243.50;;;23.43;100.00
56006;BME280;41888;44.696;10.522;2023-07-13T03:18:31;100236.22;;;23.38;100.00
56006;BME280;41888;44.696;10.522;2023-07-13T03:20:58;100231.03;;;23.42;100.00
56006;BME280;41888;44.696;10.522;2023-07-13T03:23:25;100248.03;;;23.52;100.00
56006;BME280;41888;44.696;10.522;2023-07-13T03:28:36;100255.03;;;23.72;100.00
56006;BME280;41888;44.696;10.522;2023-07-13T03:31:15;100254.84;;;23.69;100.00
56006;BME280;41888;44.696;10.522;2023-07-13T03:33:42;100254.75;;;23.74;100.00
56006;BME280;41888;44.696;10.522;2023-07-13T03:36:20;100258.19;;;23.79;100.00
56006;BME280;41888;44.696;10.522;2023-07-13T03:38:55;100261.84;;;23.88;100.00
56006;BME280;41888;44.696;10.522;2023-07-13T03:41:22;100264.47;;;23.93;100.00
56006;BME280;41888;44.696;10.522;2023-07-13T03:43:48;100272.19;;;23.86;100.00
56006;BME280;41888;44.696;10.522;2023-07-13T03:46:16;100275.63;;;23.92;100.00
56006;BME280;41888;44.696;10.522;2023-07-13T03:48:46;100271.94;;;24.02;100.00
56006;BME280;41888;44.696;10.522;2023-07-13T03:51:15;100277.81;;;24.09;100.00
56006;BME280;41888;44.696;10.522;2023-07-13T03:53:42;100286.69;;;24.14;100.00
56006;BME280;41888;44.696;10.522;2023-07-13T03:56:10;100285.88;;;24.14;100.00
56006;BME280;41888;44.696;10.522;2023-07-13T03:58:41;100282.63;;;24.12;100.00
56006;BME280;41888;44.696;10.522;2023-07-13T04:01:09;100278.53;;;24.14;100.00
56006;BME280;41888;44.696;10.522;2023-07-13T04:03:36;100263.53;;;24.17;100.00
56006;BME280;41888;44.696;10.522;2023-07-13T04:06:04;100263.53;;;24.17;100.00
56006;BME280;41888;44.696;10.522;2023-07-13T04:08:33;100277.09;;;24.17;100.00
56006;BME280;41888;44.696;10.522;2023-07-13T04:11:00;100284.84;;;24.10;100.00
56006;BME280;41888;44.696;10.522;2023-07-13T04:13:27;100296.69;;;24.19;100.00
56006;BME280;41888;44.696;10.522;2023-07-13T04:15:54;100297.53;;;23.82;100.00
56006;BME280;41888;44.696;10.522;2023-07-13T04:18:21;100300.38;;;23.90;100.00
56006;BME280;41888;44.696;10.522;2023-07-13T04:20:48;100312.66;;;23.88;100.00
56006;BME280;41888;44.696;10.522;2023-07-13T04:23:16;100319.31;;;23.95;100.00
56006;BME280;41888;44.696;10.522;2023-07-13T04:25:51;100327.88;;;23.89;100.00
56006;BME280;41888;44.696;10.522;2023-07-13T04:28:22;100313.91;;;23.77;100.00
56006;BME280;41888;44.696;10.522;2023-07-13T04:30:49;100311.13;;;23.82;100.00
56006;BME280;41888;44.696;10.522;2023-07-13T04:33:16;100306.19;;;23.65;100.00
56006;BME280;41888;44.696;10.522;2023-07-13T04:35:43;100304.31;;;23.47;100.00
56006;BME280;41888;44.696;10.522;2023-07-13T04:38:10;100301.81;;;23.50;100.00
56006;BME280;41888;44.696;10.522;2023-07-13T04:40:37;100298.06;;;23.46;100.00
56006;BME280;41888;44.696;10.522;2023-07-13T04:43:04;100295.22;;;23.56;100.00
56006;BME280;41888;44.696;10.522;2023-07-13T04:45:30;100287.53;;;23.40;100.00
56006;BME280;41888;44.696;10.522;2023-07-13T04:47:57;100286.03;;;23.10;100.00
56006;BME280;41888;44.696;10.522;2023-07-13T04:50:23;100292.28;;;23.10;100.00
56006;BME280;41888;44.696;10.522;2023-07-13T04:52:50;100312.09;;;23.30;100.00
56006;BME280;41888;44.696;10.522;2023-07-13T04:55:17;100331.91;;;23.30;100.00
56006;BME280;41888;44.696;10.522;2023-07-13T04:57:44;100322.31;;;23.38;100.00
56006;BME280;41888;44.696;10.522;2023-07-13T05:00:11;100307.63;;;23.39;100.00
56006;BME280;41888;44.696;10.522;2023-07-13T05:02:39;100327.19;;;23.60;100.00
56006;BME280;41888;44.696;10.522;2023-07-13T05:05:06;100342.91;;;23.81;100.00
56006;BME280;41888;44.696;10.522;2023-07-13T05:07:32;100342.84;;;23.86;100.00
56006;BME280;41888;44.696;10.522;2023-07-13T05:09:59;100349.28;;;23.90;100.00
56006;BME280;41888;44.696;10.522;2023-07-13T05:12:26;100325.22;;;24.21;100.00
56006;BME280;41888;44.696;10.522;2023-07-13T05:14:53;100343.66;;;24.38;100.00
56006;BME280;41888;44.696;10.522;2023-07-13T05:17:19;100346.44;;;24.52;100.00
56006;BME280;41888;44.696;10.522;2023-07-13T05:19:46;100356.69;;;24.41;100.00
56006;BME280;41888;44.696;10.522;2023-07-13T05:22:12;100345.56;;;24.37;100.00
56006;BME280;41888;44.696;10.522;2023-07-13T05:24:38;100342.19;;;24.46;100.00
56006;BME280;41888;44.696;10.522;2023-07-13T05:27:04;100334.16;;;24.68;100.00
56006;BME280;41888;44.696;10.522;2023-07-13T05:29:31;100339.84;;;25.26;100.00
56006;BME280;41888;44.696;10.522;2023-07-13T05:31:57;100335.38;;;25.44;100.00
56006;BME280;41888;44.696;10.522;2023-07-13T05:34:23;100343.94;;;26.45;100.00
56006;BME280;41888;44.696;10.522;2023-07-13T05:36:50;100356.09;;;27.49;97.35
56006;BME280;41888;44.696;10.522;2023-07-13T05:39:16;100374.50;;;28.34;88.66
56006;BME280;41888;44.696;10.522;2023-07-13T05:41:42;100358.44;;;27.81;88.71
56006;BME280;41888;44.696;10.522;2023-07-13T05:44:09;100331.72;;;27.04;95.61
56006;BME280;41888;44.696;10.522;2023-07-13T05:46:35;100324.94;;;26.62;97.91
56006;BME280;41888;44.696;10.522;2023-07-13T05:49:01;100341.47;;;25.90;100.00
56006;BME280;41888;44.696;10.522;2023-07-13T05:51:27;100332.38;;;25.18;100.00
56006;BME280;41888;44.696;10.522;2023-07-13T05:53:53;100334.41;;;24.99;100.00
56006;BME280;41888;44.696;10.522;2023-07-13T05:56:20;100338.84;;;25.08;100.00
56006;BME280;41888;44.696;10.522;2023-07-13T05:58:47;100352.97;;;24.97;100.00
56006;BME280;41888;44.696;10.522;2023-07-13T06:01:15;100339.78;;;24.90;100.00
56006;BME280;41888;44.696;10.522;2023-07-13T06:03:41;100333.81;;;25.15;100.00
56006;BME280;41888;44.696;10.522;2023-07-13T06:06:09;100318.47;;;24.92;100.00
56006;BME280;41888;44.696;10.522;2023-07-13T06:08:35;100325.34;;;25.03;100.00
56006;BME280;41888;44.696;10.522;2023-07-13T06:11:09;100325.06;;;25.68;100.00
56006;BME280;41888;44.696;10.522;2023-07-13T06:13:36;100340.94;;;25.88;100.00
56006;BME280;41888;44.696;10.522;2023-07-13T06:16:03;100354.16;;;25.95;100.00
56006;BME280;41888;44.696;10.522;2023-07-13T06:18:33;100352.72;;;25.97;100.00
56006;BME280;41888;44.696;10.522;2023-07-13T06:21:00;100338.28;;;25.97;100.00
56006;BME280;41888;44.696;10.522;2023-07-13T06:23:27;100340.63;;;25.68;100.00
56006;BME280;41888;44.696;10.522;2023-07-13T06:25:53;100349.19;;;25.97;100.00
56006;BME280;41888;44.696;10.522;2023-07-13T06:28:19;100359.53;;;26.08;100.00
56006;BME280;41888;44.696;10.522;2023-07-13T06:30:45;100348.09;;;26.20;100.00
56006;BME280;41888;44.696;10.522;2023-07-13T06:33:12;100346.75;;;25.73;100.00
56006;BME280;41888;44.696;10.522;2023-07-13T06:35:38;100347.91;;;25.58;100.00
56006;BME280;41888;44.696;10.522;2023-07-13T06:38:04;100345.38;;;25.48;100.00
56006;BME280;41888;44.696;10.522;2023-07-13T06:40:31;100345.16;;;25.45;100.00
56006;BME280;41888;44.696;10.522;2023-07-13T06:42:57;100324.72;;;25.06;100.00
56006;BME280;41888;44.696;10.522;2023-07-13T06:45:23;100314.13;;;24.77;100.00
56006;BME280;41888;44.696;10.522;2023-07-13T06:47:50;100315.75;;;24.78;100.00
56006;BME280;41888;44.696;10.522;2023-07-13T06:50:16;100322.16;;;24.55;100.00
56006;BME280;41888;44.696;10.522;2023-07-13T06:52:42;100355.22;;;24.62;100.00
56006;BME280;41888;44.696;10.522;2023-07-13T06:55:09;100357.59;;;24.50;100.00
56006;BME280;41888;44.696;10.522;2023-07-13T06:57:35;100341.19;;;24.55;100.00
56006;BME280;41888;44.696;10.522;2023-07-13T07:00:01;100349.53;;;24.45;100.00
56006;BME280;41888;44.696;10.522;2023-07-13T07:02:27;100347.81;;;24.49;100.00
56006;BME280;41888;44.696;10.522;2023-07-13T07:04:54;100363.13;;;24.45;100.00
56006;BME280;41888;44.696;10.522;2023-07-13T07:07:23;100374.00;;;24.45;100.00
56006;BME280;41888;44.696;10.522;2023-07-13T07:09:49;100371.56;;;24.44;100.00
56006;BME280;41888;44.696;10.522;2023-07-13T07:12:15;100352.84;;;24.42;100.00
56006;BME280;41888;44.696;10.522;2023-07-13T07:14:41;100357.31;;;24.52;100.00
56006;BME280;41888;44.696;10.522;2023-07-13T07:17:07;100343.16;;;24.36;100.00
56006;BME280;41888;44.696;10.522;2023-07-13T07:19:36;100362.41;;;24.39;100.00
56006;BME280;41888;44.696;10.522;2023-07-13T07:22:02;100377.16;;;24.52;100.00
56006;BME280;41888;44.696;10.522;2023-07-13T07:24:28;100389.06;;;24.70;100.00
56006;BME280;41888;44.696;10.522;2023-07-13T07:26:54;100374.38;;;24.38;100.00
56006;BME280;41888;44.696;10.522;2023-07-13T07:29:20;100356.34;;;24.10;100.00
56006;BME280;41888;44.696;10.522;2023-07-13T07:31:48;100346.88;;;23.89;100.00
56006;BME280;41888;44.696;10.522;2023-07-13T07:34:14;100336.75;;;23.94;100.00
56006;BME280;41888;44.696;10.522;2023-07-13T07:36:40;100335.25;;;24.02;100.00
56006;BME280;41888;44.696;10.522;2023-07-13T07:39:06;100320.53;;;24.22;100.00
56006;BME280;41888;44.696;10.522;2023-07-13T07:41:33;100312.63;;;24.07;100.00
56006;BME280;41888;44.696;10.522;2023-07-13T07:43:59;100290.94;;;23.69;100.00
56006;BME280;41888;44.696;10.522;2023-07-13T07:46:25;100283.91;;;23.68;100.00
56006;BME280;41888;44.696;10.522;2023-07-13T07:48:51;100274.41;;;23.66;100.00
56006;BME280;41888;44.696;10.522;2023-07-13T07:51:17;100282.66;;;23.61;100.00
56006;BME280;41888;44.696;10.522;2023-07-13T07:53:44;100290.59;;;23.57;100.00
56006;BME280;41888;44.696;10.522;2023-07-13T07:56:10;100303.94;;;23.72;100.00
56006;BME280;41888;44.696;10.522;2023-07-13T07:58:36;100293.13;;;23.86;100.00
56006;BME280;41888;44.696;10.522;2023-07-13T08:01:06;100279.38;;;23.96;100.00
56006;BME280;41888;44.696;10.522;2023-07-13T08:03:32;100274.19;;;24.13;100.00
56006;BME280;41888;44.696;10.522;2023-07-13T08:05:59;100303.47;;;24.21;100.00
56006;BME280;41888;44.696;10.522;2023-07-13T08:08:25;100338.00;;;24.21;100.00
56006;BME280;41888;44.696;10.522;2023-07-13T08:10:52;100354.50;;;24.24;100.00
56006;BME280;41888;44.696;10.522;2023-07-13T08:13:19;100322.31;;;24.13;100.00
56006;BME280;41888;44.696;10.522;2023-07-13T08:15:46;100304.22;;;23.89;100.00
56006;BME280;41888;44.696;10.522;2023-07-13T08:18:12;100349.53;;;23.94;100.00
56006;BME280;41888;44.696;10.522;2023-07-13T08:20:41;100398.72;;;23.92;100.00
56006;BME280;41888;44.696;10.522;2023-07-13T08:23:09;100376.13;;;23.78;100.00
56006;BME280;41888;44.696;10.522;2023-07-13T08:25:35;100318.41;;;23.44;100.00
56006;BME280;41888;44.696;10.522;2023-07-13T08:28:03;100332.84;;;23.21;100.00
56006;BME280;41888;44.696;10.522;2023-07-13T08:30:29;100373.19;;;23.27;100.00
56006;BME280;41888;44.696;10.522;2023-07-13T08:32:55;100422.41;;;23.44;100.00
56006;BME280;41888;44.696;10.522;2023-07-13T08:35:22;100458.81;;;23.43;100.00
56006;BME280;41888;44.696;10.522;2023-07-13T08:37:48;100469.38;;;23.45;100.00
56006;BME280;41888;44.696;10.522;2023-07-13T08:40:14;100434.28;;;23.30;100.00
56006;BME280;41888;44.696;10.522;2023-07-13T08:42:45;100414.75;;;23.04;100.00
56006;BME280;41888;44.696;10.522;2023-07-13T08:45:24;100415.44;;;23.14;100.00
56006;BME280;41888;44.696;10.522;2023-07-13T08:50:31;100342.91;;;22.72;100.00
56006;BME280;41888;44.696;10.522;2023-07-13T08:53:01;100330.50;;;22.61;100.00
56006;BME280;41888;44.696;10.522;2023-07-13T08:55:35;100335.03;;;22.71;100.00
56006;BME280;41888;44.696;10.522;2023-07-13T08:58:13;100364.94;;;22.90;100.00
56006;BME280;41888;44.696;10.522;2023-07-13T09:00:55;100385.97;;;23.03;100.00
56006;BME280;41888;44.696;10.522;2023-07-13T09:03:30;100387.97;;;23.21;100.00
56006;BME280;41888;44.696;10.522;2023-07-13T09:06:03;100397.81;;;23.36;100.00
56006;BME280;41888;44.696;10.522;2023-07-13T09:14:42;100451.47;;;23.44;100.00
56006;BME280;41888;44.696;10.522;2023-07-13T09:17:29;100455.78;;;23.50;100.00
56006;BME280;41888;44.696;10.522;2023-07-13T09:22:39;100473.91;;;23.54;100.00
56006;BME280;41888;44.696;10.522;2023-07-13T09:27:44;100461.69;;;23.57;100.00
56006;BME280;41888;44.696;10.522;2023-07-13T09:32:47;100468.41;;;23.83;100.00
56006;BME280;41888;44.696;10.522;2023-07-13T09:35:22;100470.47;;;23.91;100.00
56006;BME280;41888;44.696;10.522;2023-07-13T09:37:50;100478.34;;;24.12;100.00
56006;BME280;41888;44.696;10.522;2023-07-13T09:40:28;100481.84;;;24.17;100.00
56006;BME280;41888;44.696;10.522;2023-07-13T09:42:58;100474.22;;;24.19;100.00
56006;BME280;41888;44.696;10.522;2023-07-13T09:45:29;100476.19;;;24.51;100.00
56006;BME280;41888;44.696;10.522;2023-07-13T09:48:04;100483.88;;;24.63;100.00
56006;BME280;41888;44.696;10.522;2023-07-13T09:50:30;100483.13;;;24.76;100.00
56006;BME280;41888;44.696;10.522;2023-07-13T09:52:56;100472.31;;;24.90;100.00
56006;BME280;41888;44.696;10.522;2023-07-13T09:55:34;100467.19;;;25.02;100.00
56006;BME280;41888;44.696;10.522;2023-07-13T09:58:22;100458.06;;;25.52;100.00
56006;BME280;41888;44.696;10.522;2023-07-13T10:01:03;100461.03;;;25.70;100.00
56006;BME280;41888;44.696;10.522;2023-07-13T10:03:32;100464.38;;;26.02;100.00
56006;BME280;41888;44.696;10.522;2023-07-13T10:06:14;100452.44;;;26.12;100.00
56006;BME280;41888;44.696;10.522;2023-07-13T10:08:40;100456.34;;;26.56;100.00
56006;BME280;41888;44.696;10.522;2023-07-13T10:13:46;100445.31;;;26.83;100.00
56006;BME280;41888;44.696;10.522;2023-07-13T10:16:15;100453.50;;;26.83;100.00
56006;BME280;41888;44.696;10.522;2023-07-13T10:19:28;100444.84;;;27.12;100.00
56006;BME280;41888;44.696;10.522;2023-07-13T10:21:57;100439.00;;;27.36;100.00
56006;BME280;41888;44.696;10.522;2023-07-13T10:24:27;100442.09;;;27.43;100.00
56006;BME280;41888;44.696;10.522;2023-07-13T10:29:39;100420.78;;;27.62;100.00
56006;BME280;41888;44.696;10.522;2023-07-13T10:32:12;100423.25;;;27.81;100.00
56006;BME280;41888;44.696;10.522;2023-07-13T10:34:43;100417.94;;;27.84;97.58
56006;BME280;41888;44.696;10.522;2023-07-13T10:37:22;100408.19;;;27.44;99.96
56006;BME280;41888;44.696;10.522;2023-07-13T10:39:53;100411.19;;;26.94;100.00
56006;BME280;41888;44.696;10.522;2023-07-13T10:42:36;100402.13;;;26.85;100.00
56006;BME280;41888;44.696;10.522;2023-07-13T10:45:11;100407.19;;;26.69;100.00
56006;BME280;41888;44.696;10.522;2023-07-13T10:47:38;100400.78;;;26.74;100.00
56006;BME280;41888;44.696;10.522;2023-07-13T10:50:08;100400.69;;;27.18;100.00
56006;BME280;41888;44.696;10.522;2023-07-13T10:52:47;100389.13;;;27.21;99.23
56006;BME280;41888;44.696;10.522;2023-07-13T10:58:37;100386.03;;;27.54;94.72
56006;BME280;41888;44.696;10.522;2023-07-13T11:01:12;100379.34;;;28.11;96.22
56006;BME280;41888;44.696;10.522;2023-07-13T11:03:59;100376.94;;;28.27;89.55
56006;BME280;41888;44.696;10.522;2023-07-13T11:06:37;100378.38;;;27.90;91.19
56006;BME280;41888;44.696;10.522;2023-07-13T11:09:39;100366.78;;;27.85;96.95
56006;BME280;41888;44.696;10.522;2023-07-13T11:12:28;100364.38;;;28.26;89.55
56006;BME280;41888;44.696;10.522;2023-07-13T11:17:34;100358.06;;;28.34;85.18
56006;BME280;41888;44.696;10.522;2023-07-13T11:20:35;100352.00;;;28.20;87.83
56006;BME280;41888;44.696;10.522;2023-07-13T11:25:42;100346.13;;;28.56;85.57
56006;BME280;41888;44.696;10.522;2023-07-13T11:36:12;100348.09;;;29.02;81.90
56006;BME280;41888;44.696;10.522;2023-07-13T11:39:21;100348.22;;;29.06;83.97
56006;BME280;41888;44.696;10.522;2023-07-13T11:41:55;100347.31;;;28.38;83.53
56006;BME280;41888;44.696;10.522;2023-07-13T11:44:26;100340.63;;;28.73;81.22
56006;BME280;41888;44.696;10.522;2023-07-13T11:46:54;100341.88;;;29.14;82.03
56006;BME280;41888;44.696;10.522;2023-07-13T11:49:26;100349.66;;;29.41;80.55
56006;BME280;41888;44.696;10.522;2023-07-13T11:51:53;100343.03;;;29.13;82.48
56006;BME280;41888;44.696;10.522;2023-07-13T11:54:47;100337.72;;;28.70;80.59
56006;BME280;41888;44.696;10.522;2023-07-13T11:57:30;100330.34;;;29.37;78.68
56006;BME280;41888;44.696;10.522;2023-07-13T12:00:03;100333.97;;;29.50;78.33
56006;BME280;41888;44.696;10.522;2023-07-13T12:02:39;100335.88;;;28.91;81.86
56006;BME280;41888;44.696;10.522;2023-07-13T12:05:11;100335.22;;;28.94;82.55
56006;BME280;41888;44.696;10.522;2023-07-13T12:07:39;100332.66;;;28.89;83.62
56006;BME280;41888;44.696;10.522;2023-07-13T12:12:50;100327.44;;;28.58;82.98
56006;BME280;41888;44.696;10.522;2023-07-13T12:15:17;100326.78;;;28.61;84.26
56006;BME280;41888;44.696;10.522;2023-07-13T12:17:43;100317.91;;;29.11;80.53
56006;BME280;41888;44.696;10.522;2023-07-13T12:20:20;100316.16;;;29.06;79.10
56006;BME280;41888;44.696;10.522;2023-07-13T12:22:49;100311.66;;;29.02;77.97
56006;BME280;41888;44.696;10.522;2023-07-13T12:25:16;100304.69;;;29.13;77.62
56006;BME280;41888;44.696;10.522;2023-07-13T12:27:50;100306.16;;;29.31;76.95
56006;BME280;41888;44.696;10.522;2023-07-13T12:30:29;100302.53;;;29.68;73.91
56006;BME280;41888;44.696;10.522;2023-07-13T12:33:05;100297.50;;;29.29;73.89
56006;BME280;41888;44.696;10.522;2023-07-13T12:35:41;100300.25;;;29.70;74.28
56006;BME280;41888;44.696;10.522;2023-07-13T12:38:11;100306.06;;;29.48;72.53
56006;BME280;41888;44.696;10.522;2023-07-13T12:40:38;100297.75;;;29.77;72.98
56006;BME280;41888;44.696;10.522;2023-07-13T12:43:11;100294.19;;;29.65;70.44
56006;BME280;41888;44.696;10.522;2023-07-13T12:45:38;100285.22;;;29.76;70.83
56006;BME280;41888;44.696;10.522;2023-07-13T12:48:20;100288.63;;;29.73;73.63
56006;BME280;41888;44.696;10.522;2023-07-13T12:50:48;100285.22;;;29.97;71.70
56006;BME280;41888;44.696;10.522;2023-07-13T12:53:21;100278.50;;;30.07;73.04
56006;BME280;41888;44.696;10.522;2023-07-13T12:55:53;100283.88;;;30.48;71.58
56006;BME280;41888;44.696;10.522;2023-07-13T12:58:36;100281.94;;;30.97;70.99
56006;BME280;41888;44.696;10.522;2023-07-13T13:01:03;100283.66;;;30.90;70.31
56006;BME280;41888;44.696;10.522;2023-07-13T13:03:33;100287.16;;;29.97;76.32
56006;BME280;41888;44.696;10.522;2023-07-13T13:06:01;100287.00;;;29.52;77.31
56006;BME280;41888;44.696;10.522;2023-07-13T13:08:35;100284.81;;;29.87;76.36
56006;BME280;41888;44.696;10.522;2023-07-13T13:11:02;100283.59;;;29.75;79.72
56006;BME280;41888;44.696;10.522;2023-07-13T13:13:28;100283.13;;;29.94;79.11
56006;BME280;41888;44.696;10.522;2023-07-13T13:15:55;100288.56;;;30.03;77.43
56006;BME280;41888;44.696;10.522;2023-07-13T13:18:23;100286.94;;;30.02;79.57
56006;BME280;41888;44.696;10.522;2023-07-13T13:20:50;100280.63;;;30.34;75.81
56006;BME280;41888;44.696;10.522;2023-07-13T13:23:18;100284.44;;;30.54;76.49
56006;BME280;41888;44.696;10.522;2023-07-13T13:25:47;100264.84;;;30.43;75.43
56006;BME280;41888;44.696;10.522;2023-07-13T13:28:16;100270.84;;;30.82;74.30